Airport View

Enter AWOS ICAO identifier for current METAR.

ex. KFNL

KLRO 221855Z AUTO 17011G16KT 9SM CLR 32/25 A3000 RMK AO2

22 Jul 2019 18:55

Frequency: 118.625

Phone: 843-849-0438

Other Area AWOS: KCHS - KJZI - KMKS - KDYB

TAF KCHS 221721Z 2218/2318 23008KT P6SM SCT040 FM222000 19012G18KT P6SM SCT040 FM230200 20007KT P6SM FEW050 SCT250 FM231500 23010KT P6SM SCT040